Kittery, Maine
Current Conditions -  °F | °C
As of 7:58 PM on Sunday 21 Dec 2014 (Local Time) from KPSM Reporting Station
Overcast Overcast  
Wind Chill: 27°   Ceiling: 4300
Heat Index: 32°   Visibility: 10mi
Dew Point: 22°   Wind: 5mph
Humidity: 67%   Direction: 360°N
Pressure: 30.35"   Gusts: NA
Location:  43.09°N, 70.75°W
Report Text: KPSM 220058Z 36004KT 10SM OVC043 00/M06 A3035 RMK AO2A SLP282 T10011056
Loading
Personal Weather Stations






























Interactive Weather Map New forecast layout! Learn more

10-Day Weather Forecast

Advertisements
Track Severe Weather on mobile